Time;durP1;ratioP1;P1;durP2;ratioP2;P2;SDS_P1;SDS_P2;PMS_P1;PMS_P2;Temp;Humidity;BMP_temperature;BMP_pressure;BME280_temperature;BME280_humidity;BME280_pressure;Samples;Min_cycle;Max_cycle;Signal;HPM_P1;HPM_P2
2021/06/09 00:00:51;;;;;;;6.50;6.00;;;25.50;78.10;;;;;;5016247;28;20499;-89
2021/06/09 00:03:18;;;;;;;7.00;6.50;;;25.50;78.10;;;;;;5016176;28;20484;-91
2021/06/09 00:05:45;;;;;;;7.03;6.53;;;25.50;78.10;;;;;;5016227;28;20450;-89
2021/06/09 00:08:11;;;;;;;5.83;5.43;;;25.50;78.10;;;;;;5015806;28;20906;-88
2021/06/09 00:10:38;;;;;;;6.20;5.80;;;25.50;78.10;;;;;;5015936;28;20544;-89
2021/06/09 00:13:04;;;;;;;6.33;5.90;;;25.50;78.10;;;;;;5015989;28;20446;-92
2021/06/09 00:15:32;;;;;;;6.73;6.33;;;25.50;78.10;;;;;;5015874;28;20477;-90
2021/06/09 00:17:59;;;;;;;7.07;6.57;;;25.50;78.10;;;;;;5015669;28;20497;-89
2021/06/09 00:20:27;;;;;;;6.10;5.73;;;25.50;78.10;;;;;;5015658;28;20541;-88
2021/06/09 00:22:54;;;;;;;7.03;6.60;;;25.50;78.10;;;;;;5015881;28;20541;-90
2021/06/09 00:25:21;;;;;;;7.20;6.60;;;25.50;78.10;;;;;;5015627;28;20462;-88
2021/06/09 00:27:50;;;;;;;5.97;5.57;;;25.50;78.10;;;;;;5015588;28;20818;-89
2021/06/09 00:30:22;;;;;;;6.13;5.73;;;25.50;78.10;;;;;;5015839;28;20437;-88
2021/06/09 00:32:50;;;;;;;6.00;5.60;;;25.50;78.10;;;;;;5015644;28;20535;-88
2021/06/09 00:35:16;;;;;;;5.43;5.13;;;25.50;78.10;;;;;;5015450;28;20436;-89
2021/06/09 00:37:43;;;;;;;6.70;6.20;;;25.50;78.20;;;;;;5015335;28;20484;-86
2021/06/09 00:40:11;;;;;;;7.37;6.87;;;25.50;78.20;;;;;;5015116;28;20937;-92
2021/06/09 00:42:38;;;;;;;6.80;6.30;;;25.50;78.10;;;;;;5015023;28;20502;-88
2021/06/09 00:45:06;;;;;;;6.07;5.67;;;25.50;78.20;;;;;;5015053;28;20939;-93
2021/06/09 00:47:33;;;;;;;6.70;6.30;;;25.50;78.10;;;;;;5015187;28;20472;-88
2021/06/09 00:50:00;;;;;;;6.63;6.17;;;25.50;78.20;;;;;;5014909;28;20492;-88
2021/06/09 00:52:27;;;;;;;6.93;6.53;;;25.60;78.30;;;;;;5014846;28;20932;-88
2021/06/09 00:54:55;;;;;;;6.23;5.83;;;25.50;78.30;;;;;;5015189;28;20452;-87
2021/06/09 00:57:23;;;;;;;6.60;6.10;;;25.40;78.20;;;;;;5015082;28;20850;-87
2021/06/09 00:59:49;;;;;;;6.70;6.30;;;25.40;78.20;;;;;;5014817;28;20826;-89
2021/06/09 01:02:15;;;;;;;6.40;6.00;;;25.50;78.30;;;;;;5015031;28;20453;-88
2021/06/09 01:04:41;;;;;;;6.70;6.30;;;25.40;78.20;;;;;;5015045;28;20441;-88
2021/06/09 01:07:12;;;;;;;6.70;6.20;;;25.50;78.30;;;;;;5014991;28;20450;-88
2021/06/09 02:19:58;;;;;;;7.30;6.80;;;25.30;78.50;;;;;;4990905;28;20512;-91
2021/06/09 02:22:24;;;;;;;6.67;6.27;;;25.30;78.50;;;;;;4976930;28;20462;-93
2021/06/09 02:24:51;;;;;;;6.80;6.20;;;25.40;78.70;;;;;;4975553;28;20472;-88
2021/06/09 02:27:17;;;;;;;8.10;7.50;;;25.30;78.60;;;;;;4974970;28;20543;-91
2021/06/09 02:29:43;;;;;;;7.57;6.90;;;25.30;78.50;;;;;;4975219;28;20499;-92
2021/06/09 02:32:10;;;;;;;6.20;5.80;;;25.30;78.40;;;;;;4975408;28;20447;-88
2021/06/09 02:34:37;;;;;;;6.93;6.43;;;25.40;78.40;;;;;;4975286;28;20547;-93
2021/06/09 02:37:05;;;;;;;7.23;6.73;;;25.40;78.40;;;;;;4976091;28;20557;-92
2021/06/09 02:39:32;;;;;;;6.47;6.07;;;25.40;78.30;;;;;;4974888;28;20449;-89
2021/06/09 02:41:58;;;;;;;6.67;6.27;;;25.40;78.30;;;;;;4974954;28;20531;-93
2021/06/09 02:44:24;;;;;;;6.90;6.40;;;25.40;78.30;;;;;;4974902;28;20495;-92
2021/06/09 02:46:54;;;;;;;6.87;6.47;;;25.40;78.30;;;;;;4974678;28;20448;-93
2021/06/09 02:49:24;;;;;;;7.27;6.80;;;25.40;78.30;;;;;;4975129;28;20464;-88
2021/06/09 02:51:56;;;;;;;6.93;6.43;;;25.40;78.20;;;;;;4975072;28;20448;-89
2021/06/09 02:54:31;;;;;;;6.47;6.07;;;25.40;78.30;;;;;;4974769;28;20440;-91
2021/06/09 02:57:04;;;;;;;6.70;6.20;;;25.40;78.20;;;;;;4974641;28;20483;-92
2021/06/09 02:59:48;;;;;;;7.10;6.60;;;25.40;78.30;;;;;;4974548;28;20446;-88
2021/06/09 03:02:23;;;;;;;7.50;7.00;;;25.40;78.20;;;;;;4974582;28;20534;-89
2021/06/09 03:04:53;;;;;;;6.90;6.40;;;25.40;78.30;;;;;;4975307;28;20850;-87
2021/06/09 03:07:27;;;;;;;7.20;6.70;;;25.40;78.30;;;;;;4977622;28;21017;-89
2021/06/09 03:10:05;;;;;;;6.13;5.73;;;25.40;78.30;;;;;;4978150;28;20496;-89
2021/06/09 03:12:42;;;;;;;7.40;6.90;;;25.40;78.30;;;;;;4977887;28;20854;-88
2021/06/09 03:15:14;;;;;;;6.97;6.47;;;25.40;78.30;;;;;;4977824;28;20431;-92
2021/06/09 03:17:47;;;;;;;8.00;6.80;;;25.40;79.20;;;;;;4977589;28;20507;-91
2021/06/09 03:20:20;;;;;;;6.50;6.10;;;25.40;78.30;;;;;;4985762;28;20471;-91
2021/06/09 03:22:56;;;;;;;6.50;6.10;;;25.40;78.30;;;;;;5016849;28;20450;-88
2021/06/09 03:25:30;;;;;;;6.90;6.40;;;25.40;78.30;;;;;;5017344;28;20441;-88
2021/06/09 03:28:03;;;;;;;7.00;6.57;;;25.40;78.30;;;;;;5016783;28;20456;-89
2021/06/09 03:30:30;;;;;;;6.93;6.50;;;25.40;78.30;;;;;;5016529;28;20450;-92
2021/06/09 03:33:01;;;;;;;6.40;6.00;;;25.40;78.30;;;;;;5016727;28;20449;-89
2021/06/09 03:35:35;;;;;;;8.10;7.50;;;25.40;78.30;;;;;;5016391;28;20450;-88
2021/06/09 03:38:05;;;;;;;6.83;6.33;;;25.40;78.30;;;;;;5016456;28;20492;-92
2021/06/09 03:40:37;;;;;;;7.13;6.57;;;25.40;78.30;;;;;;5016643;28;20425;-88
2021/06/09 03:43:08;;;;;;;6.83;6.40;;;25.40;78.30;;;;;;5016276;28;20937;-91
2021/06/09 03:45:39;;;;;;;6.93;6.43;;;25.40;78.30;;;;;;5016370;28;20449;-89
2021/06/09 03:48:06;;;;;;;7.77;7.17;;;25.40;78.30;;;;;;5016250;28;20487;-89
2021/06/09 03:50:33;;;;;;;8.17;7.57;;;25.40;78.30;;;;;;5016251;28;20441;-91
2021/06/09 03:53:03;;;;;;;8.17;7.57;;;25.40;78.30;;;;;;5016264;28;20502;-88
2021/06/09 03:55:33;;;;;;;7.63;7.13;;;25.40;78.20;;;;;;5016219;28;20592;-88
2021/06/09 03:58:01;;;;;;;7.43;6.93;;;25.40;78.30;;;;;;5016282;28;20482;-92
2021/06/09 04:00:29;;;;;;;7.30;6.80;;;25.40;78.30;;;;;;5015966;28;20568;-90
2021/06/09 04:02:56;;;;;;;6.47;6.07;;;25.40;78.30;;;;;;5016168;28;20535;-89
2021/06/09 04:05:25;;;;;;;6.00;5.60;;;25.40;78.30;;;;;;5016368;28;20537;-91
2021/06/09 04:07:54;;;;;;;8.17;7.57;;;25.40;78.30;;;;;;5016393;28;20458;-88
2021/06/09 04:10:21;;;;;;;6.33;5.93;;;25.40;78.30;;;;;;5016185;28;20544;-88
2021/06/09 04:12:48;;;;;;;7.03;6.57;;;25.40;78.80;;;;;;5016231;28;20590;-88
2021/06/09 04:15:17;;;;;;;6.30;5.90;;;25.40;78.30;;;;;;5015933;28;20441;-90
2021/06/09 04:17:48;;;;;;;7.33;6.83;;;25.40;78.30;;;;;;5014943;28;20496;-89
2021/06/09 04:20:18;;;;;;;7.13;6.73;;;25.40;78.30;;;;;;5015431;28;20483;-91
2021/06/09 04:22:45;;;;;;;6.70;6.23;;;25.30;78.30;;;;;;5016027;28;20502;-88
2021/06/09 04:25:12;;;;;;;7.60;7.10;;;25.30;78.20;;;;;;5015847;28;20446;-92
2021/06/09 04:27:40;;;;;;;7.30;6.80;;;25.40;78.30;;;;;;5015972;28;20448;-87
2021/06/09 04:30:07;;;;;;;6.73;6.30;;;25.40;78.30;;;;;;5015889;28;20449;-88
2021/06/09 04:32:50;;;;;;;7.30;6.80;;;25.40;78.30;;;;;;5015816;28;20445;-89
2021/06/09 04:35:16;;;;;;;7.00;6.50;;;25.40;78.30;;;;;;5015797;28;20810;-88
2021/06/09 04:37:43;;;;;;;7.60;7.10;;;25.30;78.30;;;;;;5015421;28;20490;-88
2021/06/09 04:40:15;;;;;;;6.40;6.00;;;25.40;78.40;;;;;;5015347;28;20863;-91
2021/06/09 04:42:43;;;;;;;7.00;6.50;;;25.30;78.30;;;;;;5015704;28;20527;-91
2021/06/09 04:45:11;;;;;;;6.87;6.40;;;25.40;78.30;;;;;;5015292;28;20492;-88
2021/06/09 04:47:37;;;;;;;6.70;6.20;;;25.30;78.40;;;;;;5014168;28;20505;-92
2021/06/09 04:50:07;;;;;;;7.03;6.53;;;25.30;78.30;;;;;;5015527;28;20532;-88
2021/06/09 04:52:33;;;;;;;6.90;6.50;;;25.30;78.40;;;;;;5015096;28;20477;-92
2021/06/09 04:54:59;;;;;;;7.43;6.93;;;25.40;78.40;;;;;;5015001;28;20441;-88
2021/06/09 04:57:26;;;;;;;7.60;7.10;;;25.30;78.40;;;;;;5014962;28;20491;-87
2021/06/09 04:59:52;;;;;;;6.80;6.40;;;25.30;78.40;;;;;;5015022;28;20940;-89
2021/06/09 05:02:20;;;;;;;7.17;6.67;;;25.40;78.50;;;;;;5015288;28;20450;-92
2021/06/09 05:04:46;;;;;;;7.93;7.33;;;25.30;78.30;;;;;;5015463;28;20497;-88
2021/06/09 05:07:14;;;;;;;7.43;6.93;;;25.30;78.40;;;;;;5015228;28;20481;-91
2021/06/09 05:09:41;;;;;;;7.90;7.37;;;25.30;78.40;;;;;;5015222;28;20445;-91
2021/06/09 05:12:15;;;;;;;7.47;6.97;;;25.30;78.40;;;;;;5015628;28;20450;-89
2021/06/09 05:14:46;;;;;;;7.60;7.10;;;25.40;78.40;;;;;;5015290;28;20445;-89
2021/06/09 05:17:15;;;;;;;7.87;7.30;;;25.40;78.50;;;;;;5014941;28;20476;-88
2021/06/09 05:19:43;;;;;;;6.80;6.40;;;25.30;78.50;;;;;;5014700;28;20444;-88
2021/06/09 05:22:16;;;;;;;7.47;6.97;;;25.30;78.50;;;;;;5014445;28;20445;-88
2021/06/09 05:24:44;;;;;;;7.47;6.97;;;25.40;78.50;;;;;;5014762;28;20502;-91
2021/06/09 05:27:13;;;;;;;7.23;6.77;;;25.30;78.40;;;;;;5015576;28;20525;-89
2021/06/09 05:29:40;;;;;;;7.93;7.33;;;25.30;78.50;;;;;;5016761;28;20435;-88
2021/06/09 05:32:09;;;;;;;7.97;7.37;;;25.30;78.50;;;;;;5017439;28;20527;-89
2021/06/09 05:34:37;;;;;;;8.00;7.40;;;25.30;78.50;;;;;;5015495;28;20469;-89
2021/06/09 05:37:04;;;;;;;8.77;8.07;;;25.30;78.50;;;;;;5014983;28;20452;-88
2021/06/09 05:39:33;;;;;;;7.67;7.17;;;25.30;78.50;;;;;;5014601;28;20448;-92
2021/06/09 05:42:00;;;;;;;7.83;7.27;;;25.30;78.50;;;;;;5014354;28;20449;-88
2021/06/09 05:44:29;;;;;;;7.87;7.37;;;25.30;78.60;;;;;;5014631;28;20494;-90
2021/06/09 05:46:59;;;;;;;8.00;7.40;;;25.30;78.50;;;;;;5014047;28;20485;-87
2021/06/09 05:49:25;;;;;;;8.07;7.57;;;25.30;78.50;;;;;;5013871;28;20454;-88
2021/06/09 05:51:52;;;;;;;6.67;6.27;;;25.30;78.40;;;;;;5014018;28;20525;-88
2021/06/09 05:54:19;;;;;;;7.70;7.20;;;25.30;78.20;;;;;;5014912;28;20779;-92
2021/06/09 05:56:47;;;;;;;8.23;7.63;;;25.30;78.20;;;;;;5014240;28;20440;-88
2021/06/09 05:59:15;;;;;;;12.13;11.17;;;25.30;78.40;;;;;;5013711;28;20498;-89
2021/06/09 06:01:42;;;;;;;13.97;12.67;;;25.40;78.80;;;;;;5013769;28;20536;-92
2021/06/09 06:04:10;;;;;;;11.70;10.73;;;25.30;79.10;;;;;;5014112;28;20529;-88
2021/06/09 06:06:37;;;;;;;13.50;12.30;;;25.30;79.00;;;;;;5014072;28;20535;-88
2021/06/09 06:09:04;;;;;;;17.07;15.27;;;25.30;79.00;;;;;;5014107;28;20552;-88
2021/06/09 06:11:31;;;;;;;20.70;18.63;;;25.30;79.60;;;;;;5014008;28;20443;-88
2021/06/09 06:14:05;;;;;;;21.70;19.73;;;25.30;80.00;;;;;;5013824;28;20524;-92
2021/06/09 06:16:31;;;;;;;22.03;20.03;;;25.30;80.00;;;;;;5014273;28;20453;-89
2021/06/09 06:18:57;;;;;;;21.40;19.30;;;25.30;80.10;;;;;;5013927;28;20496;-90
2021/06/09 06:21:24;;;;;;;19.13;17.33;;;25.30;80.40;;;;;;5013744;28;20575;-92
2021/06/09 06:23:52;;;;;;;18.77;16.93;;;25.30;80.40;;;;;;5013933;28;20540;-89
2021/06/09 06:26:20;;;;;;;21.00;19.00;;;25.30;80.40;;;;;;5014226;28;20548;-92
2021/06/09 06:28:47;;;;;;;17.70;16.00;;;25.20;80.40;;;;;;5013996;28;20535;-89
2021/06/09 06:31:16;;;;;;;17.00;15.30;;;25.20;80.30;;;;;;5013850;28;20544;-89
2021/06/09 06:33:45;;;;;;;16.70;15.20;;;25.30;80.20;;;;;;5013640;28;20944;-88
2021/06/09 06:36:15;;;;;;;16.07;14.70;;;25.30;80.10;;;;;;5013706;28;20861;-92
2021/06/09 06:38:41;;;;;;;17.20;15.00;;;25.20;80.00;;;;;;5013862;28;20933;-92
2021/06/09 06:41:10;;;;;;;17.43;15.87;;;25.30;79.90;;;;;;5015618;28;20442;-91
2021/06/09 06:43:38;;;;;;;15.47;14.03;;;25.30;79.90;;;;;;5017510;28;20446;-88
2021/06/09 06:46:04;;;;;;;14.83;13.47;;;25.30;79.90;;;;;;5017432;28;20448;-89
2021/06/09 06:48:36;;;;;;;15.30;13.80;;;25.30;79.90;;;;;;5017337;28;20555;-88
2021/06/09 06:51:04;;;;;;;14.27;12.87;;;25.30;79.70;;;;;;5017562;28;20920;-93
2021/06/09 06:53:31;;;;;;;15.67;14.37;;;25.30;79.60;;;;;;5019082;28;20496;-93
2021/06/09 06:55:58;;;;;;;13.47;12.30;;;25.30;79.50;;;;;;5017307;28;20502;-90
2021/06/09 06:58:26;;;;;;;12.90;11.80;;;25.20;79.30;;;;;;5017022;28;20486;-91
2021/06/09 07:00:52;;;;;;;13.70;12.50;;;25.30;79.50;;;;;;5017700;28;20449;-89
2021/06/09 07:03:19;;;;;;;14.80;12.20;;;25.30;79.40;;;;;;5017523;28;20445;-86
2021/06/09 07:05:47;;;;;;;14.67;13.47;;;25.30;79.20;;;;;;5017106;28;20904;-88
2021/06/09 07:08:13;;;;;;;14.40;13.10;;;25.30;79.30;;;;;;5017231;28;20494;-89
2021/06/09 07:10:41;;;;;;;17.43;13.20;;;25.30;79.40;;;;;;5017400;28;20492;-91
2021/06/09 07:13:07;;;;;;;16.90;12.37;;;25.30;79.30;;;;;;5017204;28;20453;-93
2021/06/09 07:15:35;;;;;;;14.00;12.50;;;25.30;79.00;;;;;;5017249;28;20441;-88
2021/06/09 07:18:02;;;;;;;16.23;14.23;;;25.30;79.00;;;;;;5017111;28;20598;-93
2021/06/09 07:20:30;;;;;;;14.17;12.53;;;25.30;79.10;;;;;;5016782;28;20863;-89
2021/06/09 07:22:58;;;;;;;15.67;13.30;;;25.30;79.10;;;;;;5016996;28;20443;-90
2021/06/09 07:25:26;;;;;;;15.20;12.70;;;25.30;79.10;;;;;;5017260;28;20507;-89
2021/06/09 07:27:54;;;;;;;12.83;11.53;;;25.30;79.00;;;;;;5016959;28;20546;-90
2021/06/09 07:30:24;;;;;;;13.70;11.73;;;25.30;78.90;;;;;;5016587;28;20446;-89
2021/06/09 07:32:51;;;;;;;13.63;11.33;;;25.30;78.70;;;;;;5016367;28;20535;-88
2021/06/09 07:35:17;;;;;;;12.70;11.50;;;25.30;78.70;;;;;;5015033;28;20531;-91
2021/06/09 07:37:46;;;;;;;12.70;11.50;;;25.30;78.60;;;;;;5006864;28;20568;-88
2021/06/09 07:40:18;;;;;;;12.47;11.20;;;25.30;78.60;;;;;;5000159;28;20453;-88
2021/06/09 07:42:50;;;;;;;12.73;10.67;;;25.30;78.50;;;;;;5001909;28;20453;-89
2021/06/09 07:45:18;;;;;;;11.93;10.27;;;25.30;78.40;;;;;;5005057;28;20499;-88
2021/06/09 07:47:46;;;;;;;11.00;10.10;;;25.30;78.50;;;;;;5003164;28;20973;-87
2021/06/09 07:50:19;;;;;;;10.73;9.80;;;25.30;78.50;;;;;;5001697;28;20528;-88
2021/06/09 07:52:47;;;;;;;11.57;10.43;;;25.30;78.50;;;;;;4999257;28;20446;-85
2021/06/09 07:55:16;;;;;;;11.77;10.77;;;25.30;78.70;;;;;;4998694;28;20500;-93
2021/06/09 07:57:43;;;;;;;9.83;9.10;;;25.30;79.20;;;;;;4997369;28;20493;-88
2021/06/09 08:00:12;;;;;;;14.40;10.60;;;25.30;79.00;;;;;;4997286;28;20814;-88
2021/06/09 08:02:40;;;;;;;10.40;8.43;;;25.30;78.90;;;;;;4997087;28;20974;-88
2021/06/09 08:05:08;;;;;;;10.30;9.50;;;25.30;78.70;;;;;;4996932;28;20457;-88
2021/06/09 08:07:36;;;;;;;10.63;9.03;;;25.30;78.70;;;;;;4996593;28;21001;-88
2021/06/09 08:10:03;;;;;;;8.87;8.20;;;25.40;78.80;;;;;;4996911;28;20455;-88
2021/06/09 08:12:32;;;;;;;9.00;8.30;;;25.30;78.80;;;;;;4996195;28;20446;-88
2021/06/09 08:14:59;;;;;;;9.17;8.30;;;25.30;78.70;;;;;;4996244;28;20965;-88
2021/06/09 08:17:25;;;;;;;10.80;9.73;;;25.50;78.90;;;;;;4996591;28;20477;-88
2021/06/09 08:19:52;;;;;;;9.37;8.57;;;25.30;78.70;;;;;;4996067;28;20501;-89
2021/06/09 08:22:18;;;;;;;10.83;8.10;;;25.30;78.70;;;;;;4996645;28;20466;-88
2021/06/09 08:24:44;;;;;;;9.90;8.73;;;25.40;78.80;;;;;;4996478;28;20451;-88
2021/06/09 08:27:11;;;;;;;8.00;7.30;;;25.30;78.70;;;;;;4996479;28;20444;-89
2021/06/09 08:29:39;;;;;;;8.73;7.93;;;25.30;78.60;;;;;;4995773;28;20450;-89
2021/06/09 08:32:07;;;;;;;8.93;7.97;;;25.40;78.70;;;;;;4996595;28;20450;-90
2021/06/09 08:34:33;;;;;;;8.60;8.00;;;25.30;78.60;;;;;;4996789;28;20481;-89
2021/06/09 08:37:00;;;;;;;14.83;8.70;;;25.30;78.70;;;;;;5000244;28;20457;-90
2021/06/09 08:39:27;;;;;;;9.20;7.40;;;25.40;78.90;;;;;;5002906;28;20493;-89
2021/06/09 08:41:55;;;;;;;8.50;7.87;;;25.30;78.50;;;;;;5012644;28;20443;-89
2021/06/09 08:44:22;;;;;;;7.77;7.03;;;25.40;78.40;;;;;;5014975;28;20441;-88
2021/06/09 08:46:50;;;;;;;8.40;7.70;;;25.30;78.30;;;;;;5015904;28;20518;-89
2021/06/09 08:49:17;;;;;;;7.43;6.83;;;25.40;78.20;;;;;;5017070;28;20452;-88
2021/06/09 08:51:45;;;;;;;8.03;7.20;;;25.30;78.10;;;;;;5017624;28;20487;-89
2021/06/09 08:54:12;;;;;;;7.60;7.00;;;25.30;78.10;;;;;;5015830;28;20441;-91
2021/06/09 08:56:38;;;;;;;7.87;7.27;;;25.30;78.10;;;;;;5015007;28;20453;-90
2021/06/09 08:59:05;;;;;;;7.33;6.73;;;25.30;78.10;;;;;;5014564;28;20487;-90
2021/06/09 09:01:33;;;;;;;6.37;5.87;;;25.40;78.10;;;;;;5014598;28;20461;-91
2021/06/09 09:04:02;;;;;;;7.70;7.10;;;25.30;78.10;;;;;;5014315;28;20458;-90
2021/06/09 09:06:29;;;;;;;9.20;6.80;;;25.30;78.20;;;;;;5014612;28;20440;-91
2021/06/09 09:08:56;;;;;;;8.17;6.63;;;25.30;77.90;;;;;;5014570;28;20440;-90
2021/06/09 09:11:23;;;;;;;8.50;7.80;;;25.30;78.00;;;;;;5014486;28;20446;-89
2021/06/09 09:13:50;;;;;;;7.03;6.47;;;25.30;78.00;;;;;;5014309;28;20441;-90
2021/06/09 09:16:16;;;;;;;6.77;6.30;;;25.40;78.00;;;;;;5014342;28;20433;-89
2021/06/09 09:18:45;;;;;;;7.87;7.00;;;25.40;78.00;;;;;;5013772;28;21004;-89
2021/06/09 09:21:15;;;;;;;7.63;6.80;;;25.40;78.00;;;;;;5013153;28;20562;-88
2021/06/09 09:23:48;;;;;;;7.13;6.40;;;25.40;78.40;;;;;;5004121;28;20507;-92
2021/06/09 09:26:26;;;;;;;8.07;6.87;;;25.40;78.50;;;;;;4996007;28;20454;-89
2021/06/09 09:29:11;;;;;;;7.70;7.00;;;25.40;78.50;;;;;;4994874;28;20860;-89
2021/06/09 09:31:49;;;;;;;6.73;6.33;;;25.40;78.40;;;;;;4994646;28;20446;-89
2021/06/09 09:34:33;;;;;;;6.60;6.03;;;25.40;78.20;;;;;;4994689;28;20498;-88
2021/06/09 09:37:12;;;;;;;7.10;6.63;;;25.40;78.10;;;;;;4994870;28;20618;-91
2021/06/09 09:39:40;;;;;;;7.27;6.67;;;25.40;78.10;;;;;;4994753;28;20502;-89
2021/06/09 09:42:26;;;;;;;8.33;6.33;;;25.40;78.30;;;;;;4994400;28;20588;-90
2021/06/09 09:44:53;;;;;;;7.57;6.97;;;25.40;78.40;;;;;;4993564;28;20437;-89
2021/06/09 09:47:23;;;;;;;7.03;6.43;;;25.40;78.60;;;;;;4994618;28;20461;-87
2021/06/09 09:49:49;;;;;;;7.03;6.40;;;25.40;78.60;;;;;;4994581;28;20932;-87
2021/06/09 09:52:18;;;;;;;6.47;6.00;;;25.40;78.60;;;;;;4994502;28;20441;-86
2021/06/09 09:54:45;;;;;;;8.73;6.70;;;25.40;78.60;;;;;;4994457;28;20443;-86
2021/06/09 09:57:14;;;;;;;6.50;6.00;;;25.40;78.60;;;;;;4994348;28;20507;-88
2021/06/09 09:59:41;;;;;;;6.27;5.77;;;25.40;78.50;;;;;;4994654;28;20490;-87
2021/06/09 10:02:16;;;;;;;7.87;7.27;;;25.40;78.50;;;;;;4994200;28;20532;-90
2021/06/09 10:04:47;;;;;;;15.13;7.40;;;25.40;78.60;;;;;;4994372;28;20448;-88
2021/06/09 10:07:13;;;;;;;6.77;6.27;;;25.40;78.70;;;;;;4994384;28;20533;-87
2021/06/09 10:09:43;;;;;;;6.37;5.77;;;25.40;78.60;;;;;;4994367;28;20447;-86
2021/06/09 10:12:11;;;;;;;6.90;6.20;;;25.40;78.60;;;;;;4994122;28;20966;-86
2021/06/09 10:14:40;;;;;;;12.20;6.90;;;25.40;78.40;;;;;;4993878;28;20445;-85
2021/06/09 10:17:08;;;;;;;7.80;6.53;;;25.40;78.50;;;;;;4993647;28;21032;-89
2021/06/09 10:19:37;;;;;;;7.50;6.67;;;25.40;78.60;;;;;;4994409;28;20542;-87
2021/06/09 10:22:06;;;;;;;7.00;6.40;;;25.40;78.50;;;;;;4993597;28;20830;-88
2021/06/09 10:24:44;;;;;;;7.73;6.07;;;25.30;78.30;;;;;;4993931;28;20492;-85
2021/06/09 10:27:12;;;;;;;6.70;6.20;;;25.40;78.50;;;;;;4996276;28;20444;-90
2021/06/09 10:29:38;;;;;;;7.23;6.00;;;25.20;78.40;;;;;;4994190;28;21029;-90
2021/06/09 10:32:07;;;;;;;8.30;6.03;;;25.40;78.60;;;;;;4993651;28;21026;-85
2021/06/09 10:34:36;;;;;;;7.30;6.00;;;25.40;78.60;;;;;;4993874;28;20443;-84
2021/06/09 10:37:04;;;;;;;7.27;6.57;;;25.40;78.50;;;;;;4993967;28;20442;-88
2021/06/09 10:39:33;;;;;;;6.47;5.90;;;25.40;78.40;;;;;;4993767;28;20483;-84
2021/06/09 10:42:03;;;;;;;6.17;5.60;;;25.40;78.60;;;;;;4993723;28;20447;-84
2021/06/09 10:44:32;;;;;;;7.90;5.80;;;25.40;78.70;;;;;;4994152;28;20869;-84
2021/06/09 10:47:00;;;;;;;6.13;5.53;;;25.40;79.60;;;;;;4993695;28;20485;-85
2021/06/09 10:49:31;;;;;;;6.57;5.70;;;25.40;78.80;;;;;;4993940;28;20953;-89
2021/06/09 10:51:58;;;;;;;7.00;6.40;;;25.40;78.70;;;;;;4993817;28;20504;-83
2021/06/09 10:54:25;;;;;;;6.33;5.73;;;25.40;78.70;;;;;;4993943;28;20453;-86
2021/06/09 10:56:53;;;;;;;6.27;5.67;;;25.50;78.60;;;;;;4994078;28;20441;-86
2021/06/09 10:59:23;;;;;;;7.00;6.10;;;25.40;78.50;;;;;;4993966;28;20491;-87
2021/06/09 11:01:51;;;;;;;8.80;6.40;;;25.40;78.30;;;;;;4994007;28;20813;-85
2021/06/09 11:04:18;;;;;;;8.30;5.67;;;25.40;78.40;;;;;;4993981;28;20450;-87
2021/06/09 11:06:46;;;;;;;7.23;6.60;;;25.40;78.30;;;;;;4993608;28;20454;-85
2021/06/09 11:09:15;;;;;;;7.20;6.57;;;25.40;78.30;;;;;;4993610;28;20527;-86
2021/06/09 11:11:42;;;;;;;5.73;5.33;;;25.40;78.40;;;;;;4993802;28;20460;-88
2021/06/09 11:14:21;;;;;;;6.20;5.70;;;25.40;78.40;;;;;;4993637;28;20446;-87
2021/06/09 11:16:52;;;;;;;5.70;5.10;;;25.40;78.30;;;;;;4993758;28;20477;-93
2021/06/09 11:19:37;;;;;;;6.20;5.60;;;25.40;78.30;;;;;;5001219;28;20488;-86
2021/06/09 11:22:25;;;;;;;6.60;6.00;;;25.50;78.20;;;;;;5012900;28;20473;-90
2021/06/09 11:25:21;;;;;;;6.80;6.13;;;25.40;78.20;;;;;;5013769;28;20454;-87
2021/06/09 11:27:56;;;;;;;6.17;5.67;;;25.40;78.40;;;;;;5015469;28;20468;-93
2021/06/09 11:31:00;;;;;;;8.83;5.27;;;25.40;78.70;;;;;;5016848;28;20936;-87
2021/06/09 11:33:52;;;;;;;6.03;5.60;;;25.40;79.00;;;;;;5016931;28;20922;-92
2021/06/09 11:39:28;;;;;;;6.50;6.00;;;25.40;79.30;;;;;;5015877;28;20493;-88
2021/06/09 11:41:55;;;;;;;11.17;8.10;;;25.40;79.70;;;;;;5016203;28;20449;-88
2021/06/09 11:44:27;;;;;;;8.70;7.50;;;25.40;80.30;;;;;;5018370;28;20445;-88
2021/06/09 11:47:22;;;;;;;7.67;6.97;;;25.40;81.00;;;;;;5016287;28;20474;-87
2021/06/09 11:49:50;;;;;;;7.60;7.00;;;25.50;81.20;;;;;;5016232;28;20532;-88
2021/06/09 11:52:17;;;;;;;7.90;7.30;;;25.50;81.40;;;;;;5016451;28;20512;-88
2021/06/09 11:54:44;;;;;;;8.73;6.93;;;25.50;81.40;;;;;;5016669;28;20448;-89
2021/06/09 11:57:18;;;;;;;8.63;7.10;;;25.50;81.30;;;;;;5016315;28;20606;-88
2021/06/09 11:59:46;;;;;;;7.90;7.20;;;25.50;81.00;;;;;;5016161;28;20559;-88
2021/06/09 12:02:22;;;;;;;8.30;7.40;;;25.50;81.00;;;;;;5016417;28;20530;-88
2021/06/09 12:04:50;;;;;;;6.63;6.13;;;25.50;80.80;;;;;;5016491;28;20448;-88
2021/06/09 12:07:24;;;;;;;8.10;7.50;;;25.50;80.90;;;;;;5016883;28;20444;-89
2021/06/09 12:09:51;;;;;;;7.07;6.57;;;25.60;80.90;;;;;;5016492;28;20458;-88
2021/06/09 12:12:21;;;;;;;7.80;7.20;;;25.50;80.60;;;;;;5016420;28;20451;-87
2021/06/09 12:14:49;;;;;;;9.10;6.67;;;25.60;80.50;;;;;;5018469;28;20459;-88
2021/06/09 12:17:22;;;;;;;8.00;7.30;;;25.60;80.40;;;;;;5017790;28;20515;-88
2021/06/09 12:19:52;;;;;;;6.63;6.13;;;25.60;80.50;;;;;;5015175;28;20485;-85
2021/06/09 12:22:20;;;;;;;6.60;6.10;;;25.60;80.60;;;;;;5015334;28;20859;-86
2021/06/09 12:25:02;;;;;;;6.73;6.20;;;25.60;80.50;;;;;;5015555;28;20455;-90
2021/06/09 12:27:29;;;;;;;6.80;6.20;;;25.40;80.20;;;;;;5015538;28;20448;-90
2021/06/09 12:29:55;;;;;;;6.30;5.80;;;25.60;80.30;;;;;;5015537;28;20808;-90
2021/06/09 12:32:26;;;;;;;7.20;6.60;;;25.50;80.10;;;;;;5015065;28;20549;-86
2021/06/09 12:34:59;;;;;;;7.13;6.47;;;25.60;80.20;;;;;;5015024;28;20872;-87
2021/06/09 12:37:27;;;;;;;7.27;6.67;;;25.60;80.40;;;;;;5015215;28;20448;-87
2021/06/09 12:40:00;;;;;;;8.40;6.23;;;25.60;80.30;;;;;;5014302;28;20490;-88
2021/06/09 12:42:27;;;;;;;9.33;6.67;;;25.60;80.10;;;;;;5014982;28;20442;-88
2021/06/09 12:44:53;;;;;;;6.30;5.90;;;25.60;80.10;;;;;;5015123;28;20442;-88
2021/06/09 12:47:30;;;;;;;8.80;5.80;;;25.60;80.20;;;;;;5014555;28;20477;-94
2021/06/09 12:50:17;;;;;;;6.40;5.90;;;25.60;80.00;;;;;;5003985;28;20464;-95
2021/06/09 12:52:45;;;;;;;6.37;5.77;;;25.60;79.90;;;;;;5015721;28;20470;-95
2021/06/09 12:55:15;;;;;;;6.40;5.80;;;25.60;80.00;;;;;;5007460;28;20968;-87
2021/06/09 12:57:42;;;;;;;7.93;7.07;;;25.60;80.20;;;;;;5014588;28;20449;-86
2021/06/09 13:00:24;;;;;;;6.90;6.20;;;25.60;80.20;;;;;;5011516;28;20450;-86
2021/06/09 13:03:07;;;;;;;7.87;5.97;;;25.60;80.00;;;;;;5011174;28;20445;-92
2021/06/09 13:05:33;;;;;;;6.60;5.70;;;25.60;80.10;;;;;;4995778;28;20916;-90
2021/06/09 13:08:07;;;;;;;6.80;6.30;;;25.60;80.20;;;;;;5012172;28;20441;-94
2021/06/09 13:10:33;;;;;;;6.00;5.43;;;25.60;80.00;;;;;;5014289;28;20463;-87
2021/06/09 13:13:00;;;;;;;8.43;6.20;;;25.60;79.80;;;;;;5014208;28;20548;-87
2021/06/09 13:15:26;;;;;;;7.93;6.67;;;25.60;79.70;;;;;;5014204;28;21000;-87
2021/06/09 13:17:54;;;;;;;7.07;6.33;;;25.60;79.90;;;;;;5014120;28;20477;-88
2021/06/09 13:20:22;;;;;;;5.87;5.27;;;25.60;80.00;;;;;;5014152;28;20567;-88
2021/06/09 13:22:49;;;;;;;6.90;6.40;;;25.60;80.00;;;;;;5007699;28;20462;-86
2021/06/09 13:25:21;;;;;;;6.83;6.30;;;25.60;80.00;;;;;;5000250;28;20450;-89
2021/06/09 13:27:55;;;;;;;6.47;5.87;;;25.60;80.10;;;;;;5014455;28;20511;-87
2021/06/09 13:30:22;;;;;;;6.97;6.47;;;25.60;79.80;;;;;;5014343;28;20452;-90
2021/06/09 13:32:50;;;;;;;6.90;6.40;;;25.60;79.70;;;;;;5014122;28;20458;-88
2021/06/09 13:35:21;;;;;;;6.20;5.70;;;25.60;79.60;;;;;;5013925;28;20819;-91
2021/06/09 13:37:49;;;;;;;6.20;5.70;;;25.60;79.50;;;;;;5013859;28;20547;-89
2021/06/09 13:40:21;;;;;;;9.23;5.93;;;25.60;79.60;;;;;;5014180;28;20549;-88
2021/06/09 13:42:56;;;;;;;7.80;5.60;;;25.60;79.50;;;;;;5014439;28;20846;-88
2021/06/09 13:45:25;;;;;;;5.80;5.30;;;25.60;79.40;;;;;;5013912;28;20445;-87
2021/06/09 13:48:03;;;;;;;5.83;5.43;;;25.60;79.40;;;;;;5013704;28;20480;-88
2021/06/09 13:50:31;;;;;;;6.20;5.70;;;25.60;79.40;;;;;;4999949;28;20949;-89
2021/06/09 13:53:02;;;;;;;8.50;6.83;;;25.60;79.50;;;;;;5004636;28;20504;-87
2021/06/09 13:55:37;;;;;;;6.67;6.10;;;25.60;79.80;;;;;;4998753;28;20446;-86
2021/06/09 13:58:21;;;;;;;6.63;6.10;;;25.60;80.00;;;;;;4995602;28;20455;-91
2021/06/09 14:00:51;;;;;;;7.93;6.93;;;25.70;79.90;;;;;;4998806;28;20481;-85
2021/06/09 14:03:19;;;;;;;6.87;6.30;;;25.60;79.90;;;;;;5013771;28;20922;-84
2021/06/09 14:05:47;;;;;;;5.97;5.47;;;25.70;79.90;;;;;;5013713;28;20460;-83
2021/06/09 14:08:14;;;;;;;5.80;5.30;;;25.60;79.80;;;;;;5013842;28;20541;-84